Time;durP1;ratioP1;P1;durP2;ratioP2;P2;SDS_P1;SDS_P2;PMS_P1;PMS_P2;Temp;Humidity;BMP_temperature;BMP_pressure;BME280_temperature;BME280_humidity;BME280_pressure;Samples;Min_cycle;Max_cycle;Signal;HPM_P1;HPM_P2
2021/12/29 00:00:05;;;;;;;463.17;122.53;;;4.10;99.90;;;;;;4972223;28;20038;-73
2021/12/29 00:02:30;;;;;;;431.73;121.38;;;4.10;99.90;;;;;;4972702;28;20050;-72
2021/12/29 00:04:56;;;;;;;426.42;129.98;;;4.10;99.90;;;;;;4972094;28;20413;-72
2021/12/29 00:07:23;;;;;;;426.63;112.07;;;4.10;99.90;;;;;;4972020;28;20030;-72
2021/12/29 00:09:50;;;;;;;381.73;111.47;;;4.00;99.90;;;;;;4971949;28;20054;-72
2021/12/29 00:12:23;;;;;;;438.88;117.32;;;4.10;99.90;;;;;;4971015;28;20038;-72
2021/12/29 00:14:50;;;;;;;856.40;268.95;;;4.10;99.90;;;;;;4969111;28;20027;-72
2021/12/29 00:17:16;;;;;;;429.88;112.75;;;4.10;99.90;;;;;;4970592;28;20489;-72
2021/12/29 00:19:42;;;;;;;491.95;136.23;;;4.10;99.90;;;;;;4970740;28;20046;-72
2021/12/29 00:22:08;;;;;;;389.50;101.90;;;4.10;99.90;;;;;;4970607;28;20041;-73
2021/12/29 00:24:33;;;;;;;333.98;94.82;;;4.10;99.90;;;;;;4970563;28;20027;-72
2021/12/29 00:26:59;;;;;;;309.90;102.53;;;4.10;99.90;;;;;;4970629;28;20022;-72
2021/12/29 00:29:25;;;;;;;613.78;177.35;;;4.10;99.90;;;;;;4972179;28;20043;-72
2021/12/29 00:31:51;;;;;;;456.90;129.80;;;4.10;99.90;;;;;;4973557;28;20027;-72
2021/12/29 00:34:17;;;;;;;312.33;94.10;;;4.10;99.90;;;;;;4973696;28;20355;-72
2021/12/29 00:36:42;;;;;;;682.53;214.50;;;4.20;99.90;;;;;;4973989;28;20113;-72
2021/12/29 00:39:08;;;;;;;328.00;94.85;;;4.20;99.90;;;;;;4973453;28;20042;-72
2021/12/29 00:41:34;;;;;;;309.25;89.80;;;4.20;99.90;;;;;;4974259;28;20460;-72
2021/12/29 00:44:00;;;;;;;322.05;104.20;;;4.20;99.90;;;;;;4973819;28;20026;-72
2021/12/29 00:46:26;;;;;;;367.45;121.28;;;4.20;99.90;;;;;;4973739;28;20054;-72
2021/12/29 00:48:52;;;;;;;315.15;102.28;;;4.30;99.90;;;;;;4973846;28;20062;-73
2021/12/29 00:51:18;;;;;;;307.33;81.80;;;4.20;99.90;;;;;;4973794;28;20058;-73
2021/12/29 00:53:44;;;;;;;299.67;79.70;;;4.30;99.90;;;;;;4973429;28;20031;-73
2021/12/29 00:56:10;;;;;;;296.08;83.90;;;4.20;99.90;;;;;;4973710;28;20023;-72
2021/12/29 00:58:36;;;;;;;384.63;105.85;;;4.20;99.90;;;;;;4973712;28;20035;-72
2021/12/29 01:01:03;;;;;;;298.45;74.47;;;4.20;99.90;;;;;;4973541;28;20473;-72
2021/12/29 01:03:29;;;;;;;320.92;79.05;;;4.20;99.90;;;;;;4973775;28;20080;-72
2021/12/29 01:05:55;;;;;;;312.23;77.40;;;4.20;99.90;;;;;;4973457;28;20026;-73
2021/12/29 01:08:21;;;;;;;321.33;83.00;;;4.20;99.90;;;;;;4973283;28;20099;-72
2021/12/29 01:10:48;;;;;;;303.23;77.68;;;4.30;99.90;;;;;;4973418;28;20031;-72
2021/12/29 01:13:19;;;;;;;300.15;78.93;;;4.30;99.90;;;;;;4973130;28;20022;-73
2021/12/29 01:18:44;;;;;;;303.25;80.20;;;4.30;99.90;;;;;;5001893;28;20541;-72
2021/12/29 01:21:11;;;;;;;289.67;77.20;;;4.30;99.90;;;;;;4973097;28;20030;-72
2021/12/29 01:23:37;;;;;;;444.55;125.72;;;4.30;99.90;;;;;;4973342;28;20088;-72
2021/12/29 01:26:03;;;;;;;312.42;80.60;;;4.30;99.90;;;;;;4970745;28;20022;-72
2021/12/29 01:28:29;;;;;;;504.77;139.40;;;4.30;99.90;;;;;;4972791;28;20027;-73
2021/12/29 01:30:55;;;;;;;294.77;81.07;;;4.30;99.90;;;;;;4973315;28;20019;-72
2021/12/29 01:33:22;;;;;;;265.70;79.82;;;4.30;99.90;;;;;;4972849;28;20508;-72
2021/12/29 01:35:48;;;;;;;289.70;85.95;;;4.30;99.90;;;;;;4972912;28;20465;-72
2021/12/29 01:38:14;;;;;;;279.65;81.53;;;4.30;99.90;;;;;;4972879;28;20029;-72
2021/12/29 01:40:40;;;;;;;283.25;80.57;;;4.30;99.90;;;;;;4971545;28;20030;-72
2021/12/29 01:43:08;;;;;;;287.63;82.60;;;4.40;99.90;;;;;;4972933;28;20026;-72
2021/12/29 01:45:36;;;;;;;401.63;110.95;;;4.30;99.90;;;;;;4973143;28;20015;-72
2021/12/29 01:48:04;;;;;;;286.40;79.93;;;4.40;99.90;;;;;;4972744;28;20103;-73
2021/12/29 01:50:31;;;;;;;279.83;80.20;;;4.30;99.90;;;;;;4973729;28;20034;-72
2021/12/29 01:53:02;;;;;;;252.07;76.55;;;4.40;99.90;;;;;;4973658;28;20033;-72
2021/12/29 01:55:30;;;;;;;256.90;76.57;;;4.30;99.90;;;;;;4971190;28;20077;-72
2021/12/29 01:57:57;;;;;;;235.88;72.28;;;4.30;99.90;;;;;;4973634;28;20426;-72
2021/12/29 02:00:26;;;;;;;237.63;70.70;;;4.30;99.90;;;;;;4973489;28;20037;-73
2021/12/29 02:02:52;;;;;;;235.15;71.43;;;4.30;99.90;;;;;;4973182;28;20098;-72
2021/12/29 02:05:18;;;;;;;247.00;74.18;;;4.30;99.90;;;;;;4973334;28;20065;-72
2021/12/29 02:07:44;;;;;;;242.60;77.03;;;4.30;99.90;;;;;;4973694;28;20050;-72
2021/12/29 02:10:12;;;;;;;249.57;79.43;;;4.30;99.90;;;;;;4973379;28;20027;-72
2021/12/29 02:12:38;;;;;;;274.05;78.95;;;4.40;99.90;;;;;;4973159;28;20046;-72
2021/12/29 02:15:06;;;;;;;275.40;85.32;;;4.40;99.90;;;;;;4973534;28;20023;-72
2021/12/29 02:17:32;;;;;;;292.70;90.78;;;4.40;99.90;;;;;;4973323;28;20023;-72
2021/12/29 02:19:59;;;;;;;250.18;85.05;;;4.40;99.90;;;;;;4973181;28;20038;-73
2021/12/29 02:25:05;;;;;;;238.43;81.03;;;4.40;99.90;;;;;;4972561;28;20041;-73
2021/12/29 02:27:32;;;;;;;224.27;79.18;;;4.40;99.90;;;;;;4979699;28;20105;-73
2021/12/29 02:29:58;;;;;;;276.58;89.78;;;4.40;99.90;;;;;;4971904;28;20041;-73
2021/12/29 02:32:24;;;;;;;251.32;80.85;;;4.40;99.90;;;;;;4969804;28;20031;-73
2021/12/29 02:34:50;;;;;;;234.90;80.82;;;4.40;99.90;;;;;;4972012;28;20029;-72
2021/12/29 02:37:19;;;;;;;249.70;80.95;;;4.40;99.90;;;;;;4971917;28;20019;-72
2021/12/29 02:39:46;;;;;;;256.05;77.25;;;4.40;99.90;;;;;;4969795;28;20035;-73
2021/12/29 02:42:14;;;;;;;234.20;73.40;;;4.40;99.90;;;;;;4972133;28;20030;-73
2021/12/29 02:44:41;;;;;;;224.80;72.40;;;4.40;99.90;;;;;;4972199;28;20034;-72
2021/12/29 02:47:08;;;;;;;236.90;74.00;;;4.40;99.90;;;;;;4971786;28;20023;-73
2021/12/29 02:49:34;;;;;;;239.20;76.93;;;4.40;99.90;;;;;;4971812;28;20070;-72
2021/12/29 02:52:00;;;;;;;241.88;76.13;;;4.40;99.90;;;;;;4971457;28;20019;-73
2021/12/29 02:54:26;;;;;;;237.10;77.20;;;4.40;99.90;;;;;;4971688;28;20568;-72
2021/12/29 02:56:55;;;;;;;226.27;72.20;;;4.40;99.90;;;;;;4972059;28;20031;-73
2021/12/29 02:59:22;;;;;;;255.73;80.60;;;4.40;99.90;;;;;;4971554;28;20063;-73
2021/12/29 03:01:49;;;;;;;250.75;78.10;;;4.40;99.90;;;;;;4971720;28;20023;-73
2021/12/29 03:04:14;;;;;;;249.65;79.15;;;4.40;99.90;;;;;;4971550;28;20117;-72
2021/12/29 03:06:40;;;;;;;269.27;88.97;;;4.40;99.90;;;;;;4971330;28;20106;-73
2021/12/29 03:09:09;;;;;;;261.48;82.93;;;4.40;99.90;;;;;;4971674;28;20026;-72
2021/12/29 03:11:35;;;;;;;269.58;84.13;;;4.40;99.90;;;;;;4971427;28;20450;-73
2021/12/29 03:14:01;;;;;;;233.32;77.35;;;4.40;99.90;;;;;;4971500;28;20057;-72
2021/12/29 03:16:27;;;;;;;260.95;81.70;;;4.50;99.90;;;;;;4971778;28;20034;-72
2021/12/29 03:18:53;;;;;;;235.13;77.53;;;4.50;99.90;;;;;;4971420;28;20057;-72
2021/12/29 03:21:19;;;;;;;301.33;96.90;;;4.50;99.90;;;;;;4971599;28;20406;-72
2021/12/29 03:23:46;;;;;;;440.70;130.80;;;4.50;99.90;;;;;;4968768;28;20061;-72
2021/12/29 03:26:11;;;;;;;309.98;95.40;;;4.50;99.90;;;;;;4971075;28;20465;-72
2021/12/29 03:28:37;;;;;;;294.65;92.50;;;4.50;99.90;;;;;;4971074;28;20080;-72
2021/12/29 03:31:04;;;;;;;276.58;84.28;;;4.50;99.90;;;;;;4971353;28;20023;-72
2021/12/29 03:33:30;;;;;;;222.93;74.18;;;4.50;99.90;;;;;;4970955;28;20359;-72
2021/12/29 03:36:01;;;;;;;249.00;77.50;;;4.60;99.90;;;;;;4971426;28;20034;-72
2021/12/29 03:38:28;;;;;;;241.80;76.43;;;4.50;99.90;;;;;;4969021;28;20053;-72
2021/12/29 03:40:55;;;;;;;243.55;74.90;;;4.50;99.90;;;;;;4970844;28;20031;-72
2021/12/29 03:43:22;;;;;;;257.92;76.95;;;4.50;99.90;;;;;;4971186;28;20076;-72
2021/12/29 03:45:51;;;;;;;273.48;83.43;;;4.50;99.90;;;;;;4970845;28;20035;-73
2021/12/29 03:48:19;;;;;;;267.48;79.95;;;4.50;99.90;;;;;;4970718;28;20462;-72
2021/12/29 03:50:46;;;;;;;266.88;74.38;;;4.50;99.90;;;;;;4968527;28;20057;-73
2021/12/29 03:53:14;;;;;;;244.02;72.40;;;4.50;99.90;;;;;;4970907;28;20026;-72
2021/12/29 03:55:41;;;;;;;270.77;76.65;;;4.50;99.90;;;;;;4970832;28;20081;-72
2021/12/29 03:58:07;;;;;;;254.68;73.72;;;4.50;99.90;;;;;;4971018;28;20480;-72
2021/12/29 04:00:33;;;;;;;255.95;74.93;;;4.40;99.90;;;;;;4970731;28;20026;-72
2021/12/29 04:02:59;;;;;;;268.52;73.63;;;4.40;99.90;;;;;;4970275;28;20019;-72
2021/12/29 04:05:25;;;;;;;235.05;67.13;;;4.50;99.90;;;;;;4968033;28;20038;-72
2021/12/29 04:07:53;;;;;;;222.70;63.85;;;4.40;99.90;;;;;;4970552;28;20031;-72
2021/12/29 04:10:20;;;;;;;235.60;68.57;;;4.40;99.90;;;;;;4970876;28;20037;-72
2021/12/29 04:12:46;;;;;;;243.85;69.80;;;4.40;99.90;;;;;;4968311;28;20027;-72
2021/12/29 04:15:14;;;;;;;236.45;67.80;;;4.40;99.90;;;;;;4970757;28;20106;-72
2021/12/29 04:17:40;;;;;;;223.65;63.58;;;4.40;99.90;;;;;;4970616;28;20115;-72
2021/12/29 04:22:57;;;;;;;234.00;65.55;;;4.40;99.90;;;;;;4969332;28;20108;-72
2021/12/29 04:25:24;;;;;;;233.80;66.47;;;4.40;99.90;;;;;;4970373;28;20041;-71
2021/12/29 04:27:55;;;;;;;231.95;66.90;;;4.40;99.90;;;;;;4970482;28;20431;-71
2021/12/29 04:30:22;;;;;;;209.77;63.90;;;4.50;99.90;;;;;;4970487;28;20034;-71
2021/12/29 04:32:50;;;;;;;213.75;65.68;;;4.50;99.90;;;;;;4970214;28;20440;-71
2021/12/29 04:35:16;;;;;;;216.95;64.75;;;4.50;99.90;;;;;;4970501;28;20031;-71
2021/12/29 04:37:41;;;;;;;195.48;63.47;;;4.40;99.90;;;;;;4970360;28;20023;-71
2021/12/29 04:40:08;;;;;;;172.38;55.35;;;4.40;99.90;;;;;;4970371;28;20092;-72
2021/12/29 04:42:34;;;;;;;191.20;57.90;;;4.40;99.90;;;;;;4970585;28;20023;-72
2021/12/29 04:45:00;;;;;;;188.45;60.65;;;4.40;99.90;;;;;;4970102;28;20038;-72
2021/12/29 04:47:29;;;;;;;201.52;67.65;;;4.40;99.90;;;;;;4967780;28;20106;-71
2021/12/29 04:49:59;;;;;;;182.35;60.35;;;4.40;99.90;;;;;;4969789;28;20114;-72
2021/12/29 04:52:25;;;;;;;159.77;59.22;;;4.30;99.90;;;;;;4970329;28;20791;-72
2021/12/29 04:54:51;;;;;;;187.65;67.40;;;4.30;99.90;;;;;;4969965;28;20093;-71
2021/12/29 04:57:17;;;;;;;182.57;65.53;;;4.30;99.90;;;;;;4969886;28;20027;-71
2021/12/29 04:59:43;;;;;;;143.60;56.70;;;4.20;99.90;;;;;;4970242;28;20038;-71
2021/12/29 05:02:09;;;;;;;158.10;56.45;;;4.20;99.90;;;;;;4970205;28;20018;-71
2021/12/29 05:04:45;;;;;;;135.35;50.67;;;4.20;99.90;;;;;;4969796;28;20041;-71
2021/12/29 05:09:56;;;;;;;153.77;62.15;;;4.20;99.90;;;;;;4969021;28;20068;-72
2021/12/29 05:12:22;;;;;;;139.65;56.08;;;4.20;99.90;;;;;;4969953;28;20038;-71
2021/12/29 05:14:48;;;;;;;151.25;62.10;;;4.20;99.90;;;;;;4970589;28;20027;-71
2021/12/29 05:17:14;;;;;;;128.75;53.95;;;4.20;99.90;;;;;;4973766;28;20034;-72
2021/12/29 05:19:40;;;;;;;227.30;142.80;;;4.20;99.90;;;;;;4973329;28;20074;-72
2021/12/29 05:22:05;;;;;;;114.30;53.38;;;4.20;99.90;;;;;;4973799;28;20053;-72
2021/12/29 05:24:31;;;;;;;123.22;51.92;;;4.20;99.90;;;;;;4973831;28;20023;-72
2021/12/29 05:26:58;;;;;;;122.90;55.72;;;4.20;99.90;;;;;;4973636;28;20030;-72
2021/12/29 05:29:25;;;;;;;111.75;47.83;;;4.20;99.90;;;;;;4973393;28;20113;-72
2021/12/29 05:31:51;;;;;;;129.48;51.90;;;4.20;99.90;;;;;;4973483;28;20129;-72
2021/12/29 05:34:17;;;;;;;127.00;57.25;;;4.20;99.90;;;;;;4973609;28;20526;-72
2021/12/29 05:36:43;;;;;;;125.30;58.47;;;4.20;99.90;;;;;;4973594;28;20031;-72
2021/12/29 05:39:09;;;;;;;136.07;61.15;;;4.20;99.90;;;;;;4974470;28;20092;-72
2021/12/29 05:41:35;;;;;;;135.48;61.25;;;4.20;99.90;;;;;;4974100;28;20496;-72
2021/12/29 05:44:01;;;;;;;139.73;62.13;;;4.30;99.90;;;;;;4973500;28;20030;-72
2021/12/29 05:46:26;;;;;;;150.75;67.32;;;4.20;99.90;;;;;;4971562;28;20066;-72
2021/12/29 05:48:52;;;;;;;168.30;84.95;;;4.20;99.90;;;;;;4972670;28;20035;-72
2021/12/29 05:51:18;;;;;;;154.88;79.55;;;4.20;99.90;;;;;;4972584;28;20145;-72
2021/12/29 05:53:44;;;;;;;134.63;64.03;;;4.20;99.90;;;;;;4972178;28;20061;-72
2021/12/29 05:56:10;;;;;;;133.52;63.70;;;4.20;99.90;;;;;;4972641;28;20026;-72
2021/12/29 05:58:36;;;;;;;130.00;66.18;;;4.20;99.90;;;;;;4972934;28;20088;-72
2021/12/29 06:01:04;;;;;;;111.20;54.35;;;4.20;99.90;;;;;;4972822;28;20034;-72
2021/12/29 06:03:30;;;;;;;113.15;56.55;;;4.20;99.90;;;;;;4973206;28;20148;-73
2021/12/29 06:05:56;;;;;;;104.20;52.45;;;4.20;99.90;;;;;;4972925;28;20023;-72
2021/12/29 06:08:21;;;;;;;101.63;51.80;;;4.20;99.90;;;;;;4972995;28;20023;-72
2021/12/29 06:10:47;;;;;;;123.13;59.80;;;4.20;99.90;;;;;;4972849;28;20035;-72
2021/12/29 06:13:13;;;;;;;115.90;56.05;;;4.20;99.90;;;;;;4972924;28;20035;-72
2021/12/29 06:15:39;;;;;;;112.03;56.17;;;4.20;99.90;;;;;;4972855;28;20030;-72
2021/12/29 06:18:05;;;;;;;120.53;56.80;;;4.20;99.90;;;;;;4972967;28;20042;-72
2021/12/29 06:20:32;;;;;;;126.63;61.33;;;4.20;99.90;;;;;;4972940;28;20039;-72
2021/12/29 06:22:57;;;;;;;177.68;82.78;;;4.20;99.90;;;;;;4972735;28;20023;-72
2021/12/29 06:25:23;;;;;;;176.73;86.10;;;4.20;99.90;;;;;;4973193;28;20101;-72
2021/12/29 06:27:51;;;;;;;149.15;65.63;;;4.20;99.90;;;;;;4972215;28;20062;-72
2021/12/29 06:30:17;;;;;;;128.05;63.88;;;4.20;99.90;;;;;;4973169;28;20089;-73
2021/12/29 06:32:44;;;;;;;132.20;63.22;;;4.20;99.90;;;;;;4972723;28;20033;-72
2021/12/29 06:35:14;;;;;;;127.82;62.88;;;4.20;99.90;;;;;;4972543;28;20072;-72
2021/12/29 06:37:39;;;;;;;132.63;59.58;;;4.20;99.90;;;;;;4972617;28;20065;-72
2021/12/29 06:40:06;;;;;;;138.55;65.85;;;4.20;99.90;;;;;;4972320;28;20070;-72
2021/12/29 06:42:32;;;;;;;128.32;63.03;;;4.20;99.90;;;;;;4972501;28;20076;-72
2021/12/29 06:44:58;;;;;;;133.90;67.00;;;4.20;99.90;;;;;;4972627;28;20065;-72
2021/12/29 06:47:25;;;;;;;151.27;75.82;;;4.20;99.90;;;;;;4972111;28;20066;-72
2021/12/29 06:49:51;;;;;;;156.77;75.20;;;4.30;99.90;;;;;;4972310;28;20038;-73
2021/12/29 06:52:16;;;;;;;154.70;74.25;;;4.30;99.90;;;;;;4972164;28;20026;-73
2021/12/29 06:54:44;;;;;;;143.50;65.30;;;4.30;99.90;;;;;;4972015;28;20051;-73
2021/12/29 06:57:10;;;;;;;125.55;59.75;;;4.30;99.90;;;;;;4968713;28;20035;-71
2021/12/29 06:59:36;;;;;;;135.55;69.07;;;4.30;99.90;;;;;;4972046;28;20092;-71
2021/12/29 07:02:02;;;;;;;161.45;79.05;;;4.30;99.90;;;;;;4970334;28;20023;-72
2021/12/29 07:04:28;;;;;;;149.63;78.18;;;4.30;99.90;;;;;;4972109;28;20031;-71
2021/12/29 07:06:54;;;;;;;151.00;78.75;;;4.30;99.90;;;;;;4974082;28;20106;-71
2021/12/29 07:09:20;;;;;;;166.68;83.30;;;4.30;99.90;;;;;;4972335;28;20105;-71
2021/12/29 07:11:46;;;;;;;164.35;81.47;;;4.30;99.90;;;;;;4968964;28;20446;-72
2021/12/29 07:14:12;;;;;;;179.93;89.57;;;4.40;99.90;;;;;;4972308;28;20031;-73
2021/12/29 07:16:39;;;;;;;181.57;91.18;;;4.40;99.90;;;;;;4968224;28;20508;-72
2021/12/29 07:19:06;;;;;;;202.57;103.75;;;4.40;99.90;;;;;;4972005;28;20077;-72
2021/12/29 07:21:32;;;;;;;210.88;105.10;;;4.40;99.90;;;;;;4968415;28;20078;-73
2021/12/29 07:23:58;;;;;;;177.30;87.03;;;4.40;99.90;;;;;;4972086;28;20466;-72
2021/12/29 07:26:24;;;;;;;183.65;93.03;;;4.40;99.90;;;;;;4972222;28;20027;-73
2021/12/29 07:28:51;;;;;;;212.38;114.25;;;4.40;99.90;;;;;;4972465;28;20027;-73
2021/12/29 07:31:18;;;;;;;234.10;119.38;;;4.50;99.90;;;;;;4972076;28;20023;-73
2021/12/29 07:33:44;;;;;;;213.23;109.60;;;4.50;99.90;;;;;;4972278;28;20041;-73
2021/12/29 07:36:11;;;;;;;205.70;109.78;;;4.50;99.90;;;;;;4970855;28;20027;-73
2021/12/29 07:38:38;;;;;;;181.18;92.60;;;4.50;99.90;;;;;;4970035;28;20023;-73
2021/12/29 07:41:04;;;;;;;162.00;86.30;;;4.50;99.90;;;;;;4970061;28;20026;-71
2021/12/29 07:43:30;;;;;;;156.60;78.05;;;4.60;99.90;;;;;;4971047;28;20023;-73
2021/12/29 07:45:56;;;;;;;150.75;80.63;;;4.60;99.90;;;;;;4970995;28;20054;-71
2021/12/29 07:48:27;;;;;;;144.27;73.72;;;4.60;99.90;;;;;;4971188;28;20030;-72
2021/12/29 07:50:54;;;;;;;140.95;72.22;;;4.70;99.90;;;;;;4967112;28;20054;-72
2021/12/29 07:53:20;;;;;;;136.90;70.72;;;4.70;99.90;;;;;;4971815;28;20035;-72
2021/12/29 07:55:46;;;;;;;162.95;78.05;;;4.80;99.90;;;;;;4971529;28;20050;-72
2021/12/29 07:58:12;;;;;;;152.25;74.28;;;4.80;99.90;;;;;;4966973;28;20023;-72
2021/12/29 08:00:38;;;;;;;166.50;86.00;;;4.80;99.90;;;;;;4971432;28;20042;-72
2021/12/29 08:03:04;;;;;;;202.27;100.05;;;4.90;99.90;;;;;;4970572;28;20035;-72
2021/12/29 08:05:30;;;;;;;219.75;109.05;;;4.90;99.90;;;;;;4969491;28;20033;-72
2021/12/29 08:07:56;;;;;;;195.95;99.25;;;4.90;99.90;;;;;;4970672;28;20037;-72
2021/12/29 08:10:22;;;;;;;206.38;100.18;;;5.00;99.90;;;;;;4969958;28;20089;-72
2021/12/29 08:12:48;;;;;;;272.58;127.32;;;5.00;99.90;;;;;;4970616;28;20088;-72
2021/12/29 08:15:14;;;;;;;261.35;123.90;;;5.00;99.90;;;;;;4969696;28;20031;-72
2021/12/29 08:17:40;;;;;;;263.15;122.78;;;5.10;99.90;;;;;;4969688;28;20027;-72
2021/12/29 08:20:08;;;;;;;464.13;224.05;;;5.20;99.90;;;;;;4970219;28;20037;-72
2021/12/29 08:22:34;;;;;;;278.30;142.63;;;5.20;99.90;;;;;;4970759;28;20401;-72
2021/12/29 08:25:00;;;;;;;305.73;141.00;;;5.20;99.90;;;;;;4970762;28;20044;-72
2021/12/29 08:27:26;;;;;;;277.63;131.73;;;5.20;99.90;;;;;;4970780;28;20058;-72
2021/12/29 08:29:52;;;;;;;418.90;197.48;;;5.30;99.90;;;;;;4970925;28;20105;-72
2021/12/29 08:32:18;;;;;;;444.63;219.98;;;5.30;99.90;;;;;;4970567;28;20518;-72
2021/12/29 08:34:44;;;;;;;602.97;292.75;;;5.40;99.90;;;;;;4970757;28;20037;-72
2021/12/29 08:37:10;;;;;;;629.35;312.27;;;5.40;99.90;;;;;;4971704;28;20058;-72
2021/12/29 08:39:36;;;;;;;454.58;239.23;;;5.50;99.90;;;;;;4971897;28;20071;-71
2021/12/29 08:42:02;;;;;;;458.67;234.73;;;5.50;99.90;;;;;;4970896;28;20050;-72
2021/12/29 08:44:27;;;;;;;374.55;197.20;;;5.60;99.90;;;;;;4971059;28;20470;-72
2021/12/29 08:46:53;;;;;;;303.35;162.82;;;5.70;99.90;;;;;;4971136;28;20102;-71
2021/12/29 08:49:19;;;;;;;400.80;218.73;;;5.80;99.90;;;;;;4971888;28;20102;-71
2021/12/29 08:51:45;;;;;;;432.63;250.15;;;5.90;99.90;;;;;;4974892;28;20050;-72
2021/12/29 08:54:10;;;;;;;336.20;189.23;;;6.00;99.90;;;;;;4974833;28;20406;-72
2021/12/29 08:56:36;;;;;;;336.83;195.38;;;6.00;99.90;;;;;;4974715;28;20027;-71
2021/12/29 08:59:03;;;;;;;320.63;190.23;;;6.10;99.90;;;;;;4974800;28;20043;-71
2021/12/29 09:01:28;;;;;;;284.50;164.48;;;6.10;99.90;;;;;;4974838;28;20043;-71
2021/12/29 09:03:54;;;;;;;263.58;143.20;;;6.20;99.90;;;;;;4974838;28;20042;-72
2021/12/29 09:06:22;;;;;;;246.68;133.75;;;6.40;99.90;;;;;;4974933;28;20031;-71
2021/12/29 09:08:48;;;;;;;276.63;149.95;;;6.50;99.90;;;;;;4973695;28;20027;-72
2021/12/29 09:11:15;;;;;;;228.52;123.03;;;6.50;99.90;;;;;;4974510;28;20108;-71
2021/12/29 09:13:41;;;;;;;160.15;86.95;;;6.60;99.90;;;;;;4974112;28;20108;-74
2021/12/29 09:16:08;;;;;;;138.63;75.80;;;6.60;99.90;;;;;;4973875;28;20019;-72
2021/12/29 09:18:35;;;;;;;184.70;95.80;;;6.60;99.90;;;;;;4974080;28;20065;-72
2021/12/29 09:21:12;;;;;;;156.20;89.95;;;6.60;99.90;;;;;;4973195;28;20070;-72
2021/12/29 09:23:38;;;;;;;257.60;140.35;;;6.70;99.90;;;;;;4973356;28;20027;-72
2021/12/29 09:26:05;;;;;;;190.88;117.30;;;6.70;99.90;;;;;;4973929;28;20019;-72
2021/12/29 09:28:32;;;;;;;200.95;115.03;;;6.80;99.90;;;;;;4973889;28;20461;-72
2021/12/29 09:30:58;;;;;;;148.95;89.32;;;6.90;99.90;;;;;;4973719;28;20488;-72
2021/12/29 09:33:23;;;;;;;93.60;51.05;;;7.00;99.90;;;;;;4973479;28;20188;-72
2021/12/29 09:35:57;;;;;;;115.68;67.28;;;7.10;99.90;;;;;;4973584;28;20031;-71
2021/12/29 09:38:24;;;;;;;146.20;81.82;;;7.20;99.90;;;;;;4970376;28;20507;-72
2021/12/29 09:40:50;;;;;;;171.93;99.28;;;7.30;99.90;;;;;;4972783;28;20042;-72
2021/12/29 09:43:17;;;;;;;132.25;69.00;;;7.40;99.90;;;;;;4973435;28;20026;-71
2021/12/29 09:45:45;;;;;;;108.35;58.85;;;7.50;99.90;;;;;;4973215;28;20110;-72
2021/12/29 09:48:11;;;;;;;107.40;60.17;;;7.60;99.90;;;;;;4973269;28;20042;-72
2021/12/29 09:50:38;;;;;;;101.55;55.78;;;7.60;99.90;;;;;;4973031;28;20035;-72
2021/12/29 09:53:04;;;;;;;98.88;54.78;;;7.70;99.90;;;;;;4973308;28;20110;-71
2021/12/29 09:55:30;;;;;;;89.75;47.58;;;7.80;99.90;;;;;;4972471;28;20075;-71
2021/12/29 09:57:59;;;;;;;81.70;45.30;;;7.80;99.90;;;;;;4970512;28;20445;-71
2021/12/29 10:00:26;;;;;;;98.43;51.40;;;7.80;99.90;;;;;;4972600;28;20062;-72
2021/12/29 10:02:54;;;;;;;125.13;67.50;;;7.90;99.90;;;;;;4971622;28;20101;-72
2021/12/29 10:05:22;;;;;;;176.75;94.47;;;7.90;99.90;;;;;;4972676;28;20015;-72
2021/12/29 10:08:06;;;;;;;149.82;77.68;;;7.90;99.90;;;;;;4973371;28;20027;-72
2021/12/29 10:10:34;;;;;;;189.85;105.15;;;8.00;99.90;;;;;;4953967;28;20067;-73
2021/12/29 10:13:01;;;;;;;179.82;97.35;;;8.10;99.90;;;;;;4954027;28;20031;-72
2021/12/29 10:15:41;;;;;;;133.13;72.82;;;8.10;99.90;;;;;;4953822;28;20027;-72
2021/12/29 10:18:22;;;;;;;138.60;74.00;;;8.20;99.90;;;;;;4954110;29;20076;-73
2021/12/29 10:20:55;;;;;;;186.98;98.90;;;8.30;99.90;;;;;;4953897;29;20054;-73
2021/12/29 10:23:27;;;;;;;90.63;48.30;;;8.40;99.90;;;;;;4963718;28;20085;-72
2021/12/29 10:26:03;;;;;;;103.95;56.25;;;8.40;99.90;;;;;;4972953;28;20031;-72
2021/12/29 10:28:31;;;;;;;115.07;65.18;;;8.50;99.90;;;;;;4973043;28;20458;-73
2021/12/29 10:31:03;;;;;;;107.95;61.38;;;8.60;99.90;;;;;;4972796;28;20062;-71
2021/12/29 10:33:39;;;;;;;147.45;74.40;;;8.50;99.90;;;;;;4972483;28;20046;-72
2021/12/29 10:36:37;;;;;;;148.05;72.90;;;8.60;99.90;;;;;;4972987;28;20023;-72
2021/12/29 10:39:18;;;;;;;129.85;67.03;;;8.60;99.90;;;;;;4972928;28;20046;-72
2021/12/29 10:41:55;;;;;;;88.40;49.67;;;8.70;99.90;;;;;;4972824;28;20023;-73
2021/12/29 10:44:32;;;;;;;81.15;44.17;;;8.80;99.90;;;;;;4972141;28;20142;-72
2021/12/29 10:47:01;;;;;;;74.05;45.50;;;9.00;99.90;;;;;;4971272;28;20107;-72
2021/12/29 10:49:28;;;;;;;89.55;50.15;;;8.90;99.90;;;;;;4968692;28;20046;-72
2021/12/29 10:51:57;;;;;;;89.00;52.78;;;9.60;99.90;;;;;;4972256;28;20478;-72
2021/12/29 10:54:25;;;;;;;100.75;59.45;;;10.70;99.90;;;;;;4971960;28;20053;-72
2021/12/29 10:57:21;;;;;;;138.93;77.13;;;10.70;99.90;;;;;;4972782;28;20019;-72
2021/12/29 10:59:55;;;;;;;86.85;47.53;;;10.50;99.90;;;;;;5011864;28;20124;-72
2021/12/29 11:02:27;;;;;;;113.53;66.53;;;10.20;99.90;;;;;;5011405;28;20117;-73
2021/12/29 11:05:00;;;;;;;86.35;50.33;;;10.10;99.90;;;;;;5012076;28;20034;-72
2021/12/29 11:07:30;;;;;;;108.28;65.93;;;10.10;99.90;;;;;;5011911;28;20060;-73
2021/12/29 11:10:14;;;;;;;76.13;46.97;;;10.20;99.90;;;;;;5011672;28;20140;-73
2021/12/29 11:12:49;;;;;;;87.18;50.58;;;10.10;99.90;;;;;;5011552;28;20113;-73
2021/12/29 11:15:20;;;;;;;89.68;52.55;;;10.10;99.90;;;;;;5011910;28;20054;-73
2021/12/29 11:17:46;;;;;;;90.55;53.63;;;10.00;99.90;;;;;;5012246;28;20066;-73
2021/12/29 11:20:18;;;;;;;104.10;56.45;;;9.90;99.90;;;;;;5011842;28;20082;-73
2021/12/29 11:22:44;;;;;;;95.35;57.30;;;9.90;99.90;;;;;;5011913;28;20106;-73
2021/12/29 11:25:10;;;;;;;104.40;60.97;;;9.90;99.90;;;;;;5011260;28;20051;-73
2021/12/29 11:27:36;;;;;;;99.47;56.05;;;9.80;99.90;;;;;;5011377;28;20489;-73
2021/12/29 11:30:09;;;;;;;96.93;56.60;;;9.70;99.90;;;;;;5010394;28;20042;-73
2021/12/29 11:32:41;;;;;;;101.35;58.88;;;9.60;99.90;;;;;;5009220;28;20026;-73
2021/12/29 11:35:13;;;;;;;137.60;74.47;;;9.50;99.90;;;;;;5005141;28;20033;-73
2021/12/29 11:37:59;;;;;;;156.85;85.63;;;9.50;99.90;;;;;;4951759;29;20057;-73
2021/12/29 11:40:29;;;;;;;108.32;65.57;;;9.40;99.90;;;;;;4952507;29;20122;-73
2021/12/29 11:42:56;;;;;;;117.03;69.05;;;9.40;99.90;;;;;;4952596;28;20024;-73
2021/12/29 11:45:22;;;;;;;135.05;77.32;;;9.40;99.90;;;;;;4952323;28;20036;-73
2021/12/29 11:47:49;;;;;;;331.67;153.32;;;9.40;99.90;;;;;;4952479;29;20031;-72
2021/12/29 11:50:28;;;;;;;99.53;57.40;;;9.40;99.90;;;;;;4952280;28;20027;-73
2021/12/29 11:53:32;;;;;;;84.88;50.28;;;9.30;99.90;;;;;;4952142;29;20027;-72
2021/12/29 11:56:04;;;;;;;86.03;50.95;;;9.20;99.90;;;;;;4951958;28;20553;-73
2021/12/29 11:58:32;;;;;;;95.13;56.60;;;9.30;99.90;;;;;;4951955;29;20110;-73
2021/12/29 12:01:11;;;;;;;106.45;63.00;;;9.30;99.90;;;;;;4952477;28;20031;-73
2021/12/29 12:03:52;;;;;;;165.93;96.32;;;9.30;99.90;;;;;;4951919;29;20118;-73
2021/12/29 12:06:29;;;;;;;138.40;82.23;;;9.30;99.90;;;;;;4952600;29;20403;-73
2021/12/29 12:09:10;;;;;;;112.35;64.10;;;9.20;99.90;;;;;;4952419;28;20033;-73
2021/12/29 12:11:44;;;;;;;82.13;47.60;;;9.20;99.90;;;;;;4951954;29;20031;-73
2021/12/29 12:14:25;;;;;;;60.58;33.85;;;9.20;99.90;;;;;;4952473;28;20035;-73
2021/12/29 12:17:06;;;;;;;71.22;40.47;;;9.20;99.90;;;;;;4952762;29;20046;-73
2021/12/29 12:19:32;;;;;;;65.53;37.80;;;9.20;99.90;;;;;;4951941;29;20066;-72
2021/12/29 12:22:03;;;;;;;57.60;34.00;;;9.20;99.90;;;;;;4952292;28;20035;-72
2021/12/29 12:24:29;;;;;;;74.30;39.17;;;9.10;99.90;;;;;;4951053;29;20035;-72
2021/12/29 12:26:56;;;;;;;74.20;40.42;;;9.30;99.90;;;;;;4952086;28;20069;-73
2021/12/29 12:29:25;;;;;;;75.50;40.47;;;9.30;99.90;;;;;;4951657;28;20426;-73
2021/12/29 12:32:06;;;;;;;84.28;42.28;;;9.30;99.90;;;;;;4951667;29;20107;-72
2021/12/29 12:34:34;;;;;;;82.95;41.53;;;9.10;99.90;;;;;;4952179;29;20092;-72
2021/12/29 12:37:01;;;;;;;76.80;39.65;;;9.10;99.90;;;;;;4952072;28;20027;-72
2021/12/29 12:39:28;;;;;;;56.83;33.85;;;9.10;99.90;;;;;;4951651;28;20078;-72